createdAt,value
2022-08-03T00:01:24.327Z,19.83
2022-08-03T00:03:51.115Z,8.93
2022-08-03T00:06:17.914Z,5.97
2022-08-03T00:08:44.525Z,9.77
2022-08-03T00:11:11.222Z,6.93
2022-08-03T00:13:38.025Z,7.00
2022-08-03T00:16:05.238Z,7.80
2022-08-03T00:18:31.882Z,8.10
2022-08-03T00:20:58.494Z,9.10
2022-08-03T00:23:25.189Z,6.77
2022-08-03T00:25:52.087Z,6.33
2022-08-03T00:28:18.752Z,6.30
2022-08-03T00:30:45.425Z,9.70
2022-08-03T00:33:12.139Z,8.80
2022-08-03T00:35:50.780Z,7.73
2022-08-03T00:38:18.773Z,8.50
2022-08-03T00:40:45.871Z,6.27
2022-08-03T00:43:12.934Z,6.53
2022-08-03T00:45:41.363Z,5.70
2022-08-03T00:48:19.810Z,5.93
2022-08-03T00:50:56.452Z,7.23
2022-08-03T00:53:23.201Z,6.73
2022-08-03T00:55:49.928Z,6.13
2022-08-03T00:58:16.765Z,8.10
2022-08-03T01:00:43.463Z,8.00
2022-08-03T01:03:11.891Z,6.67
2022-08-03T01:05:49.983Z,7.70
2022-08-03T01:08:26.488Z,12.47
2022-08-03T01:11:12.231Z,6.50
2022-08-03T01:14:03.978Z,11.13
2022-08-03T01:16:57.663Z,11.37
2022-08-03T01:19:33.844Z,8.27
2022-08-03T01:22:21.867Z,8.37
2022-08-03T01:25:11.825Z,10.80
2022-08-03T01:27:56.871Z,10.47
2022-08-03T01:30:35.371Z,7.00
2022-08-03T01:33:12.418Z,11.73
2022-08-03T01:35:47.101Z,13.53
2022-08-03T01:38:18.119Z,9.70
2022-08-03T01:40:47.889Z,13.63
2022-08-03T01:44:27.652Z,11.27
2022-08-03T01:46:08.883Z,10.83
2022-08-03T01:48:39.706Z,12.77
2022-08-03T01:51:08.970Z,6.47
2022-08-03T01:53:38.237Z,9.90
2022-08-03T01:56:07.002Z,8.00
2022-08-03T01:58:36.422Z,12.63
2022-08-03T02:01:05.110Z,8.80
2022-08-03T02:03:36.647Z,12.07
2022-08-03T02:07:00.623Z,16.33
2022-08-03T02:08:53.497Z,8.27
2022-08-03T02:11:20.291Z,8.33
2022-08-03T02:13:51.156Z,8.50
2022-08-03T02:16:19.449Z,9.63
2022-08-03T02:18:48.114Z,10.93
2022-08-03T02:21:21.066Z,13.00
2022-08-03T02:24:04.486Z,13.30
2022-08-03T02:26:33.286Z,6.17
2022-08-03T02:29:05.693Z,7.70
2022-08-03T02:31:36.981Z,11.57
2022-08-03T02:34:09.765Z,9.60
2022-08-03T02:36:39.539Z,10.63
2022-08-03T02:39:09.990Z,7.60
2022-08-03T02:41:47.554Z,9.47
2022-08-03T02:44:17.245Z,8.23
2022-08-03T02:46:46.673Z,11.33
2022-08-03T02:49:40.762Z,8.30
2022-08-03T02:52:04.397Z,7.63
2022-08-03T02:54:33.836Z,10.83
2022-08-03T02:57:02.426Z,14.50
2022-08-03T02:59:31.355Z,13.33
2022-08-03T03:02:00.440Z,9.27
2022-08-03T03:04:33.003Z,24.37
2022-08-03T03:07:01.711Z,7.97
2022-08-03T03:09:41.856Z,12.60
2022-08-03T03:12:12.438Z,11.47
2022-08-03T03:14:39.845Z,12.80
2022-08-03T03:17:14.905Z,8.80
2022-08-03T03:19:42.933Z,11.13
2022-08-03T03:22:10.791Z,11.57
2022-08-03T03:24:38.766Z,13.47
2022-08-03T03:27:05.447Z,16.90
2022-08-03T03:29:37.063Z,10.50
2022-08-03T03:32:09.110Z,11.50
2022-08-03T03:34:36.553Z,10.30
2022-08-03T03:37:03.420Z,9.10
2022-08-03T03:39:30.118Z,14.53
2022-08-03T03:41:57.411Z,9.93
2022-08-03T03:44:29.613Z,11.43
2022-08-03T03:46:57.919Z,7.77
2022-08-03T03:49:24.925Z,10.40
2022-08-03T03:51:55.484Z,11.90
2022-08-03T03:54:25.431Z,8.50
2022-08-03T03:56:55.739Z,8.80
2022-08-03T03:59:22.449Z,9.37
2022-08-03T04:01:58.818Z,9.80
2022-08-03T04:04:44.421Z,11.90
2022-08-03T04:07:29.688Z,9.60
2022-08-03T04:10:16.334Z,8.07
2022-08-03T04:12:50.491Z,8.93
2022-08-03T04:15:22.073Z,12.83
2022-08-03T04:17:51.471Z,9.20
2022-08-03T04:20:21.400Z,8.13
2022-08-03T04:22:52.839Z,12.70
2022-08-03T04:25:23.826Z,8.27
2022-08-03T04:28:28.353Z,7.83
2022-08-03T04:30:47.453Z,14.73
2022-08-03T04:33:16.367Z,11.53
2022-08-03T04:36:01.758Z,8.63
2022-08-03T04:38:32.914Z,10.07
2022-08-03T04:41:01.108Z,6.80
2022-08-03T04:43:29.425Z,15.03
2022-08-03T04:45:57.470Z,10.47
2022-08-03T04:48:24.697Z,13.73
2022-08-03T04:50:51.913Z,9.20
2022-08-03T04:53:18.700Z,8.00
2022-08-03T04:55:46.303Z,10.87
2022-08-03T04:58:12.970Z,7.50
2022-08-03T05:00:39.644Z,10.33
2022-08-03T05:03:20.021Z,10.20
2022-08-03T05:06:09.360Z,10.87
2022-08-03T05:08:46.278Z,11.63
2022-08-03T05:11:15.575Z,10.50
2022-08-03T05:13:42.533Z,8.47
2022-08-03T05:16:09.176Z,8.23
2022-08-03T05:18:36.070Z,11.43
2022-08-03T05:21:02.836Z,9.67
2022-08-03T05:23:29.512Z,9.47
2022-08-03T05:25:56.458Z,8.00
2022-08-03T05:28:23.253Z,8.37
2022-08-03T05:30:49.988Z,6.80
2022-08-03T05:33:16.682Z,10.23
2022-08-03T05:35:57.187Z,7.70
2022-08-03T05:38:34.012Z,9.43
2022-08-03T05:41:21.625Z,8.17
2022-08-03T05:43:49.649Z,7.47
2022-08-03T05:46:16.388Z,9.20
2022-08-03T05:48:43.606Z,9.87
2022-08-03T05:51:11.774Z,9.13
2022-08-03T05:53:39.825Z,9.50
2022-08-03T05:56:14.041Z,9.70
2022-08-03T05:58:47.217Z,8.03
2022-08-03T06:01:15.706Z,8.87
2022-08-03T06:03:42.658Z,10.03
2022-08-03T06:06:09.609Z,9.20
2022-08-03T06:08:36.484Z,7.70
2022-08-03T06:11:03.794Z,8.40
2022-08-03T06:13:30.540Z,10.07
2022-08-03T06:15:57.199Z,8.70
2022-08-03T06:18:24.686Z,10.57
2022-08-03T06:20:52.290Z,12.10
2022-08-03T06:23:19.365Z,7.13
2022-08-03T06:25:47.375Z,9.20
2022-08-03T06:28:42.487Z,11.13
2022-08-03T06:31:01.759Z,6.03
2022-08-03T06:34:22.832Z,8.80
2022-08-03T06:36:15.778Z,5.50
2022-08-03T06:38:42.434Z,5.50
2022-08-03T06:41:09.097Z,4.90
2022-08-03T06:43:37.609Z,4.67
2022-08-03T06:46:08.095Z,4.00
2022-08-03T06:48:34.719Z,4.80
2022-08-03T06:51:01.319Z,4.83
2022-08-03T06:53:27.981Z,4.80
2022-08-03T06:55:55.411Z,5.80
2022-08-03T06:58:23.036Z,4.37
2022-08-03T07:00:49.741Z,4.67
2022-08-03T07:03:17.157Z,4.50
2022-08-03T07:05:45.681Z,5.20
2022-08-03T07:08:12.819Z,4.73
2022-08-03T07:10:39.646Z,4.50
2022-08-03T07:13:06.926Z,5.33
2022-08-03T07:15:55.563Z,3.97
2022-08-03T07:18:28.368Z,4.10
2022-08-03T07:20:57.738Z,3.93
2022-08-03T07:23:25.452Z,4.03
2022-08-03T07:25:52.196Z,4.20
2022-08-03T07:28:19.007Z,5.10
2022-08-03T07:30:45.691Z,4.27
2022-08-03T07:33:12.516Z,3.60
2022-08-03T07:35:39.501Z,6.80
2022-08-03T07:38:06.447Z,4.37
2022-08-03T07:40:33.141Z,4.10
2022-08-03T07:43:00.251Z,4.40
2022-08-03T07:45:27.068Z,4.63
2022-08-03T07:47:54.547Z,5.03
2022-08-03T07:50:22.117Z,6.40
2022-08-03T07:52:50.239Z,3.87
2022-08-03T07:55:19.609Z,4.17
2022-08-03T07:57:46.606Z,8.07
2022-08-03T08:00:19.224Z,4.60
2022-08-03T08:02:46.461Z,4.20
2022-08-03T08:05:13.321Z,4.53
2022-08-03T08:07:40.448Z,4.23
2022-08-03T08:10:10.078Z,4.70
2022-08-03T08:12:38.832Z,3.93
2022-08-03T08:15:07.591Z,5.43
2022-08-03T08:17:47.931Z,4.10
2022-08-03T08:20:28.373Z,4.70
2022-08-03T08:23:02.795Z,3.90
2022-08-03T08:25:32.288Z,4.90
2022-08-03T08:28:22.253Z,4.07
2022-08-03T08:30:54.912Z,3.53
2022-08-03T08:33:23.399Z,4.70
2022-08-03T08:35:53.094Z,4.33
2022-08-03T08:38:19.870Z,4.07
2022-08-03T08:40:46.515Z,4.30
2022-08-03T08:43:13.264Z,3.83
2022-08-03T08:45:41.611Z,3.53
2022-08-03T08:48:10.724Z,3.20
2022-08-03T08:50:38.814Z,4.60
2022-08-03T08:53:10.717Z,5.13
2022-08-03T08:55:58.318Z,3.93
2022-08-03T08:58:29.701Z,2.97
2022-08-03T09:00:56.816Z,8.43
2022-08-03T09:03:30.195Z,3.57
2022-08-03T09:06:00.674Z,3.20
2022-08-03T09:08:28.044Z,2.30
2022-08-03T09:10:54.717Z,3.50
2022-08-03T09:13:21.567Z,4.00
2022-08-03T09:15:59.096Z,2.70
2022-08-03T09:18:32.724Z,5.27
2022-08-03T09:21:32.770Z,2.60
2022-08-03T09:24:04.669Z,2.30
2022-08-03T09:26:33.224Z,2.87
2022-08-03T09:29:06.939Z,22.03
2022-08-03T09:31:46.107Z,2.80
2022-08-03T09:34:17.130Z,3.93
2022-08-03T09:36:49.326Z,2.30
2022-08-03T09:39:18.844Z,9.07
2022-08-03T09:41:48.158Z,6.70
2022-08-03T09:44:24.488Z,2.60
2022-08-03T09:46:59.000Z,3.03
2022-08-03T09:49:25.908Z,2.97
2022-08-03T09:52:33.115Z,2.13
2022-08-03T09:54:41.396Z,2.77
2022-08-03T09:57:08.889Z,4.27
2022-08-03T09:59:35.675Z,2.00
2022-08-03T10:02:05.939Z,2.33
2022-08-03T10:04:32.603Z,2.17
2022-08-03T10:07:23.550Z,3.20
2022-08-03T10:10:29.013Z,2.57
2022-08-03T10:13:00.224Z,5.17
2022-08-03T10:16:22.082Z,2.53
2022-08-03T10:18:14.764Z,2.27
2022-08-03T10:20:46.900Z,2.07
2022-08-03T10:23:15.747Z,2.83
2022-08-03T10:25:44.788Z,2.33
2022-08-03T10:28:15.484Z,2.33
2022-08-03T10:30:45.341Z,1.80
2022-08-03T10:33:51.982Z,2.03
2022-08-03T10:36:13.174Z,2.10
2022-08-03T10:38:59.230Z,2.30
2022-08-03T10:41:31.367Z,2.43
2022-08-03T10:44:15.741Z,2.40
2022-08-03T10:46:45.355Z,3.00
2022-08-03T10:49:34.036Z,2.23
2022-08-03T10:52:05.280Z,2.47
2022-08-03T10:55:03.071Z,2.30
2022-08-03T10:57:49.711Z,2.37
2022-08-03T11:00:19.129Z,3.47
2022-08-03T11:03:11.890Z,2.00
2022-08-03T11:05:38.606Z,2.03
2022-08-03T11:08:26.275Z,3.30
2022-08-03T11:10:55.930Z,1.80
2022-08-03T11:13:25.070Z,2.10
2022-08-03T11:15:54.243Z,1.80
2022-08-03T11:18:29.451Z,2.43
2022-08-03T11:20:58.980Z,1.93
2022-08-03T11:24:05.559Z,2.10
2022-08-03T11:26:30.608Z,2.30
2022-08-03T11:29:30.745Z,3.70
2022-08-03T11:31:57.890Z,2.00
2022-08-03T11:34:25.151Z,3.93
2022-08-03T11:37:22.123Z,3.10
2022-08-03T11:39:51.795Z,2.70
2022-08-03T11:42:24.803Z,1.90
2022-08-03T11:44:52.710Z,3.13
2022-08-03T11:47:21.513Z,4.20
2022-08-03T11:49:49.546Z,1.97
2022-08-03T11:52:17.499Z,3.33
2022-08-03T11:54:44.756Z,2.33
2022-08-03T11:57:12.230Z,4.27
2022-08-03T11:59:39.013Z,2.20
2022-08-03T12:02:14.696Z,4.83
2022-08-03T12:05:00.284Z,5.70
2022-08-03T12:08:03.128Z,3.83
2022-08-03T12:10:16.393Z,2.40
2022-08-03T12:12:46.335Z,4.03
2022-08-03T12:15:13.625Z,3.37
2022-08-03T12:17:41.610Z,2.17
2022-08-03T12:20:10.256Z,4.63
2022-08-03T12:22:39.413Z,3.37
2022-08-03T12:25:09.865Z,2.10
2022-08-03T12:27:37.069Z,2.33
2022-08-03T12:30:04.952Z,2.47
2022-08-03T12:32:31.861Z,2.43
2022-08-03T12:35:04.531Z,2.33
2022-08-03T12:37:32.064Z,2.10
2022-08-03T12:40:08.020Z,6.00
2022-08-03T12:42:39.436Z,4.00
2022-08-03T12:45:28.164Z,2.43
2022-08-03T12:47:54.868Z,2.27
2022-08-03T12:50:31.322Z,2.30
2022-08-03T12:53:00.410Z,3.23
2022-08-03T12:55:56.575Z,3.40
2022-08-03T12:58:35.549Z,2.63
2022-08-03T13:01:10.395Z,2.47
2022-08-03T13:03:43.630Z,1.90
2022-08-03T13:06:25.453Z,3.57
2022-08-03T13:09:05.066Z,2.33
2022-08-03T13:11:57.532Z,2.40
2022-08-03T13:14:19.565Z,2.57
2022-08-03T13:16:47.496Z,3.37
2022-08-03T13:19:15.651Z,2.40
2022-08-03T13:22:01.748Z,2.50
2022-08-03T13:24:30.564Z,2.80
2022-08-03T13:26:59.221Z,3.00
2022-08-03T13:29:25.950Z,2.90
2022-08-03T13:31:52.673Z,3.53
2022-08-03T13:34:23.074Z,2.07
2022-08-03T13:39:57.545Z,2.17
2022-08-03T13:42:25.140Z,2.03
2022-08-03T13:44:51.970Z,2.60
2022-08-03T13:47:19.542Z,2.07
2022-08-03T13:49:54.327Z,1.80
2022-08-03T13:52:30.454Z,2.40
2022-08-03T13:54:57.147Z,2.70
2022-08-03T13:58:11.831Z,2.93
2022-08-03T14:00:12.053Z,4.63
2022-08-03T14:02:38.959Z,3.13
2022-08-03T14:05:06.018Z,2.47
2022-08-03T14:07:32.677Z,3.63
2022-08-03T14:09:59.786Z,1.97
2022-08-03T14:12:26.463Z,1.97
2022-08-03T14:14:53.995Z,2.40
2022-08-03T14:17:23.202Z,1.93
2022-08-03T14:19:53.207Z,2.17
2022-08-03T14:22:20.882Z,1.90
2022-08-03T14:24:47.747Z,2.17
2022-08-03T14:27:16.497Z,2.10
2022-08-03T14:29:43.438Z,2.70
2022-08-03T14:32:13.282Z,2.50
2022-08-03T14:34:41.056Z,2.60
2022-08-03T14:37:08.440Z,1.90
2022-08-03T14:42:21.858Z,2.63
2022-08-03T14:44:48.653Z,4.10
2022-08-03T14:47:15.432Z,2.20
2022-08-03T14:50:33.639Z,2.77
2022-08-03T14:52:29.462Z,2.47
2022-08-03T14:54:56.304Z,1.90
2022-08-03T14:57:23.186Z,2.13
2022-08-03T14:59:56.711Z,2.07
2022-08-03T15:02:25.503Z,2.23
2022-08-03T15:04:52.605Z,2.90
2022-08-03T15:07:20.592Z,7.53
2022-08-03T15:09:47.799Z,2.80
2022-08-03T15:12:14.517Z,2.03
2022-08-03T15:14:41.152Z,2.97
2022-08-03T15:17:08.175Z,1.93
2022-08-03T15:20:02.796Z,2.00
2022-08-03T15:22:24.851Z,2.57
2022-08-03T15:24:52.591Z,2.97
2022-08-03T15:27:19.490Z,3.30
2022-08-03T15:30:09.154Z,2.50
2022-08-03T15:32:34.352Z,2.27
2022-08-03T15:35:01.200Z,2.60
2022-08-03T15:37:28.136Z,2.13
2022-08-03T15:39:59.863Z,2.27
2022-08-03T15:42:32.669Z,1.90
2022-08-03T15:44:59.904Z,2.20
2022-08-03T15:47:26.906Z,1.83
2022-08-03T15:49:53.678Z,3.20
2022-08-03T15:52:20.447Z,1.80
2022-08-03T15:54:47.187Z,3.33
2022-08-03T15:57:13.878Z,2.67
2022-08-03T15:59:40.524Z,2.70
2022-08-03T16:02:07.310Z,2.60
2022-08-03T16:04:34.066Z,6.03
2022-08-03T16:07:00.767Z,2.47
2022-08-03T16:09:43.421Z,3.13
2022-08-03T16:12:15.366Z,3.80
2022-08-03T16:14:51.755Z,5.17
2022-08-03T16:17:20.899Z,3.20
2022-08-03T16:19:47.750Z,4.83
2022-08-03T16:22:14.670Z,3.00
2022-08-03T16:24:44.295Z,4.30
2022-08-03T16:27:17.352Z,2.33
2022-08-03T16:29:57.728Z,2.43
2022-08-03T16:32:24.427Z,2.30
2022-08-03T16:34:51.100Z,2.60
2022-08-03T16:37:37.533Z,4.60
2022-08-03T16:40:08.932Z,1.87
2022-08-03T16:42:44.370Z,1.73
2022-08-03T16:45:11.280Z,2.03
2022-08-03T16:47:37.969Z,2.13
2022-08-03T16:50:14.231Z,4.83
2022-08-03T16:52:46.952Z,1.70
2022-08-03T16:55:42.844Z,2.30
2022-08-03T16:58:03.416Z,2.20
2022-08-03T17:00:34.690Z,2.40
2022-08-03T17:03:12.466Z,1.63
2022-08-03T17:05:49.830Z,7.07
2022-08-03T17:08:26.495Z,3.00
2022-08-03T17:10:55.067Z,4.37
2022-08-03T17:13:22.816Z,3.87
2022-08-03T17:16:01.467Z,12.17
2022-08-03T17:18:37.689Z,8.23
2022-08-03T17:21:10.476Z,2.53
2022-08-03T17:24:26.493Z,2.87
2022-08-03T17:26:59.283Z,3.53
2022-08-03T17:29:29.946Z,2.33
2022-08-03T17:31:56.991Z,2.47
2022-08-03T17:34:26.648Z,2.10
2022-08-03T17:37:27.351Z,3.10
2022-08-03T17:39:59.898Z,2.63
2022-08-03T17:42:31.320Z,7.80
2022-08-03T17:45:03.799Z,1.93
2022-08-03T17:47:42.389Z,5.00
2022-08-03T17:50:24.257Z,3.53
2022-08-03T17:53:00.861Z,3.73
2022-08-03T17:55:56.879Z,2.90
2022-08-03T17:58:55.054Z,2.60
2022-08-03T18:02:09.577Z,2.43
2022-08-03T18:04:55.549Z,3.50
2022-08-03T18:07:41.136Z,2.53
2022-08-03T18:10:15.430Z,2.60
2022-08-03T18:12:53.722Z,5.07
2022-08-03T18:15:39.171Z,4.73
2022-08-03T18:18:10.519Z,4.80
2022-08-03T18:20:41.572Z,2.57
2022-08-03T18:23:25.479Z,3.80
2022-08-03T18:26:02.567Z,2.33
2022-08-03T18:28:32.293Z,2.47
2022-08-03T18:31:03.207Z,3.77
2022-08-03T18:34:16.916Z,3.70
2022-08-03T18:36:30.416Z,3.93
2022-08-03T18:38:59.961Z,2.63
2022-08-03T18:41:32.979Z,2.43
2022-08-03T18:44:08.348Z,3.50
2022-08-03T18:47:16.437Z,3.13
2022-08-03T18:50:04.986Z,2.23
2022-08-03T18:52:54.973Z,5.47
2022-08-03T18:55:33.046Z,3.03
2022-08-03T18:58:17.579Z,3.03
2022-08-03T19:01:03.342Z,3.70
2022-08-03T19:03:43.112Z,9.30
2022-08-03T19:06:22.828Z,4.30
2022-08-03T19:08:58.322Z,3.40
2022-08-03T19:12:14.560Z,2.60
2022-08-03T19:14:34.823Z,7.20
2022-08-03T19:17:11.956Z,3.63
2022-08-03T19:19:44.937Z,4.37
2022-08-03T19:22:16.034Z,3.50
2022-08-03T19:24:45.969Z,3.10
2022-08-03T19:27:13.382Z,2.97
2022-08-03T19:29:59.022Z,2.93
2022-08-03T19:32:29.815Z,9.10
2022-08-03T19:34:59.680Z,2.87
2022-08-03T19:37:38.731Z,6.17
2022-08-03T19:40:10.701Z,5.00
2022-08-03T19:42:43.491Z,5.40
2022-08-03T19:45:14.751Z,4.13
2022-08-03T19:48:06.770Z,4.40
2022-08-03T19:50:37.024Z,4.70
2022-08-03T19:53:12.779Z,6.90
2022-08-03T19:55:49.219Z,9.40
2022-08-03T19:58:17.604Z,12.53
2022-08-03T20:00:48.703Z,8.33
2022-08-03T20:03:21.883Z,6.50
2022-08-03T20:05:52.258Z,7.67
2022-08-03T20:08:22.149Z,9.97
2022-08-03T20:10:49.540Z,10.83
2022-08-03T20:13:19.331Z,10.73
2022-08-03T20:15:46.839Z,11.63
2022-08-03T20:21:15.100Z,14.70
2022-08-03T20:24:01.769Z,9.03
2022-08-03T20:26:33.033Z,17.23
2022-08-03T20:29:09.127Z,12.63
2022-08-03T20:31:37.594Z,18.20
2022-08-03T20:34:06.373Z,15.37
2022-08-03T20:36:33.267Z,26.10
2022-08-03T20:39:00.044Z,18.90
2022-08-03T20:41:26.960Z,16.47
2022-08-03T20:43:54.377Z,15.30
2022-08-03T20:46:29.151Z,9.20
2022-08-03T20:49:03.838Z,16.90
2022-08-03T20:51:50.207Z,16.97
2022-08-03T20:54:23.042Z,16.93
2022-08-03T20:57:03.686Z,13.93
2022-08-03T20:59:46.939Z,12.03
2022-08-03T21:02:19.774Z,19.53
2022-08-03T21:04:58.038Z,23.83
2022-08-03T21:08:04.047Z,13.70
2022-08-03T21:10:17.690Z,18.17
2022-08-03T21:13:03.878Z,10.80
2022-08-03T21:13:15.465Z,17.27
2022-08-03T21:16:06.700Z,9.53
2022-08-03T21:18:42.593Z,13.60
2022-08-03T21:21:13.169Z,11.50
2022-08-03T21:23:48.601Z,15.70
2022-08-03T21:26:18.145Z,7.10
2022-08-03T21:28:46.715Z,11.07
2022-08-03T21:31:14.338Z,8.27
2022-08-03T21:33:56.524Z,11.50
2022-08-03T21:36:25.591Z,14.10
2022-08-03T21:38:55.851Z,6.00
2022-08-03T21:41:23.748Z,8.70
2022-08-03T21:43:50.417Z,9.97
2022-08-03T21:46:18.934Z,11.30
2022-08-03T21:48:47.847Z,11.13
2022-08-03T21:51:17.334Z,16.87
2022-08-03T21:54:02.525Z,11.90
2022-08-03T21:56:41.938Z,6.93
2022-08-03T21:59:15.877Z,14.73
2022-08-03T22:01:45.483Z,10.00
2022-08-03T22:04:50.878Z,13.00
2022-08-03T22:07:04.306Z,15.40
2022-08-03T22:09:31.230Z,17.03
2022-08-03T22:11:57.887Z,11.70
2022-08-03T22:14:24.780Z,17.60
2022-08-03T22:16:51.581Z,16.07
2022-08-03T22:19:18.345Z,17.53
2022-08-03T22:21:48.768Z,14.73
2022-08-03T22:24:19.647Z,15.67
2022-08-03T22:27:09.929Z,16.43
2022-08-03T22:29:39.833Z,15.10
2022-08-03T22:32:06.857Z,13.03
2022-08-03T22:34:34.356Z,15.27
2022-08-03T22:37:06.559Z,13.47
2022-08-03T22:39:34.244Z,8.00
2022-08-03T22:42:05.149Z,13.20
2022-08-03T22:44:32.401Z,14.83
2022-08-03T22:46:59.432Z,12.47
2022-08-03T22:49:28.568Z,8.93
2022-08-03T22:51:56.167Z,12.27
2022-08-03T22:54:23.840Z,15.60
2022-08-03T22:56:52.124Z,14.43
2022-08-03T22:59:40.832Z,14.80
2022-08-03T23:02:21.116Z,15.73
2022-08-03T23:04:56.774Z,14.33
2022-08-03T23:07:43.535Z,9.00
2022-08-03T23:10:13.246Z,12.20
2022-08-03T23:12:42.456Z,9.43
2022-08-03T23:15:11.719Z,8.17
2022-08-03T23:17:57.888Z,9.57
2022-08-03T23:20:26.993Z,8.40
2022-08-03T23:22:57.604Z,18.80
2022-08-03T23:25:25.216Z,10.00
2022-08-03T23:28:05.673Z,12.50
2022-08-03T23:30:37.167Z,7.40
2022-08-03T23:33:06.712Z,17.57
2022-08-03T23:36:29.295Z,9.63
2022-08-03T23:38:40.011Z,5.83
2022-08-03T23:41:08.210Z,9.70
2022-08-03T23:43:51.462Z,10.57
2022-08-03T23:46:21.215Z,11.87
2022-08-03T23:48:47.852Z,9.97
2022-08-03T23:51:27.610Z,8.87
2022-08-03T23:54:03.276Z,13.00
2022-08-03T23:56:58.659Z,10.47
2022-08-03T23:59:53.067Z,7.30
